Ursvikens väder

stationens status  
Klimatstatistik

Klimatstatistik


Report for 2009 Sep
                   Monthly Climatological Summary for sep 2009

Name: Ursviken   City:    State: 
Elevation: 35 m  Lat: N 64° 42' 41"   Lon: E 021° 10' 44"

                  Temperature (°C), Rain (mm), Wind Speed (m/s)

                                      Heat  Cool        Avg
    Mean                              Deg   Deg         Wind                 Dom
Day Temp  High   Time   Low    Time   Days  Days  Rain  Speed High   Time    Dir
----------------------------------------------------------------------------------
 1  18,1  24,2   00:00  12,1   00:00   0,1   0,0   1,8   0,4   4,1   00:00   ---
 2  15,9  20,2   00:00  11,5   00:00   2,4   0,0   3,0   0,6   5,4   00:00   ---
 3  14,6  21,6   00:00   7,5   00:00   3,7   0,0   3,0   0,2   4,8   00:00   ---
 4  13,4  18,4   00:00   8,3   00:00   4,9   0,0  18,0   1,3   6,5   00:00   ---
 5  15,1  17,7   00:00  12,4   00:00   3,2   0,0  17,7   0,8   7,1   00:00   ---
 6  13,3  16,0   00:00  10,6   00:00   5,0   0,0   0,3   0,3   2,4   00:00   ---
 7  12,9  19,3   00:00   6,5   00:00   5,4   0,0   0,0   0,5   3,7   00:00   ---
 8  15,0  20,1   00:00   9,9   00:00   3,3   0,0   6,3   0,8   7,1   00:00   ---
 9  18,4  24,3   00:00  12,5   00:00   0,0   0,0   7,8   1,2   7,8   00:00   ---
10  12,1  19,1   00:00   5,1   00:00   6,2   0,0   7,8   1,6   8,8   00:00   ---
11  11,4  18,2   00:00   4,7   00:00   6,8   0,0   0,3   0,7   4,8   00:00   ---
12  11,1  17,1   00:00   5,0   00:00   7,2   0,0   0,0   0,5   4,8   00:00   ---
13  11,5  18,3   00:00   4,7   00:00   6,8   0,0   0,0   0,1   2,4   00:00   ---
14  12,6  20,5   00:00   4,7   00:00   5,7   0,0   0,0   0,2   2,7   00:00   ---
15  16,2  25,9   00:00   6,5   00:00   6,1   0,0   0,0   0,1   2,0   00:00   OSO
16  11,3  15,6   00:00   6,9   00:00   7,0   0,0   0,0   0,3   5,4   00:00   ---
17   9,1  14,2   00:00   4,1   00:00   9,1   0,0   0,0   1,2   6,5   00:00   ---
18   5,5  12,2   00:00  -1,2   00:00  11,5   0,0   0,9   0,1   2,4   00:00   SSV
19  13,9  18,6   00:00   9,2   00:00   4,4   0,0   6,6   0,6   4,4   00:00   ---
20  11,6  18,5   00:00   4,8   00:00   6,6   0,0   5,4   0,4   4,8   00:00   ---
21  11,5  16,2   00:00   6,8   00:00  14,0   0,0   0,0   0,5   5,1   00:00   VNV
22  11,1  18,0   00:00   4,3   00:00   7,1   0,0   3,3   0,2   3,4   00:00   ---
23  11,3  15,3   00:00   7,3   00:00   7,0   0,0   3,6   1,0   6,5   00:00   ---
24   8,4  14,0   00:00   2,7   00:00   9,9   0,0   0,3   0,7   3,4   00:00   ---
25   6,0  11,6   00:00   0,4   00:00  12,3   0,0   0,6   0,2   3,1   00:00   ---
26  13,6  16,6   00:00  10,7   00:00   4,6   0,0   1,2   0,7   6,8   00:00   ---
27  12,2  17,0   00:00   7,4   00:00   6,1   0,0   0,9   1,2   9,5   00:00   ---
28   6,9  11,4   00:00   2,4   00:00  11,4   0,0   0,9   1,0   6,1   00:00   ---
29   5,0  10,1   00:00  -0,1   00:00  13,3   0,0   0,0   0,9   4,1   00:00   ---
30   5,7  11,4   00:00  -0,1   00:00  12,6   0,0   0,0   0,7   5,1   00:00   ---
----------------------------------------------------------------------------------
    11,8  25,9    15    -1,2    18   204,4   0,0  89,7   0,6   9,5    27       N

Max >=  20,0:  7
Max <=   0,0:  0
Min <=   0,0:  3
Min <= -20,0:  0
Max Rain: 18,0 on day 4
Days of Rain: 20 (>= 0,2 mm)  11 (>= 2,0 mm)  0 (>= 20,0 mm)
Heat Base: 18,3  Cool Base: 18,3  Method: Integration
 
: nu: mätare: diagram: idag och igår: månad och år: rekord: månadsrekord: statistik:
Startsidan Ursviken Örviken

Välkommen till Lundströms väder
Väderstationen som används är en WH1080, Uppdaterad 2024-06-13 15:35:00
skapad av Cumulus v1.9.4 (10992)
Forum
sedan 22 dec 2012